sensor_id;sensor_type;location;lat;lon;timestamp;P1;durP1;ratioP1;P2;durP2;ratioP2
6412;SDS011;3239;48.714;9.472;2023-06-10T00:01:13;14.63;;;4.47;;
6412;SDS011;3239;48.714;9.472;2023-06-10T00:03:39;5.00;;;4.60;;
6412;SDS011;3239;48.714;9.472;2023-06-10T00:06:06;4.90;;;4.50;;
6412;SDS011;3239;48.714;9.472;2023-06-10T00:08:31;5.70;;;4.97;;
6412;SDS011;3239;48.714;9.472;2023-06-10T00:10:58;6.67;;;4.90;;
6412;SDS011;3239;48.714;9.472;2023-06-10T00:13:23;6.43;;;5.30;;
6412;SDS011;3239;48.714;9.472;2023-06-10T00:15:50;5.20;;;4.73;;
6412;SDS011;3239;48.714;9.472;2023-06-10T00:18:15;5.93;;;5.33;;
6412;SDS011;3239;48.714;9.472;2023-06-10T00:20:42;5.80;;;4.97;;
6412;SDS011;3239;48.714;9.472;2023-06-10T00:23:08;5.20;;;4.80;;
6412;SDS011;3239;48.714;9.472;2023-06-10T00:25:34;5.30;;;4.90;;
6412;SDS011;3239;48.714;9.472;2023-06-10T00:28:00;6.77;;;5.20;;
6412;SDS011;3239;48.714;9.472;2023-06-10T00:30:26;5.33;;;4.83;;
6412;SDS011;3239;48.714;9.472;2023-06-10T00:32:51;9.50;;;5.60;;
6412;SDS011;3239;48.714;9.472;2023-06-10T00:35:17;6.00;;;5.50;;
6412;SDS011;3239;48.714;9.472;2023-06-10T00:37:43;6.00;;;5.50;;
6412;SDS011;3239;48.714;9.472;2023-06-10T00:40:09;6.70;;;6.10;;
6412;SDS011;3239;48.714;9.472;2023-06-10T00:42:35;6.40;;;5.20;;
6412;SDS011;3239;48.714;9.472;2023-06-10T00:45:01;6.07;;;5.47;;
6412;SDS011;3239;48.714;9.472;2023-06-10T00:47:28;8.83;;;5.37;;
6412;SDS011;3239;48.714;9.472;2023-06-10T00:49:54;5.93;;;4.73;;
6412;SDS011;3239;48.714;9.472;2023-06-10T00:52:20;6.13;;;5.63;;
6412;SDS011;3239;48.714;9.472;2023-06-10T00:54:49;6.50;;;4.80;;
6412;SDS011;3239;48.714;9.472;2023-06-10T00:57:16;5.67;;;5.20;;
6412;SDS011;3239;48.714;9.472;2023-06-10T00:59:42;5.77;;;5.30;;
6412;SDS011;3239;48.714;9.472;2023-06-10T01:02:12;5.70;;;5.20;;
6412;SDS011;3239;48.714;9.472;2023-06-10T01:04:38;5.93;;;5.43;;
6412;SDS011;3239;48.714;9.472;2023-06-10T01:10:04;6.10;;;5.50;;
6412;SDS011;3239;48.714;9.472;2023-06-10T01:15:32;6.70;;;5.43;;
6412;SDS011;3239;48.714;9.472;2023-06-10T01:18:00;5.50;;;5.10;;
6412;SDS011;3239;48.714;9.472;2023-06-10T01:20:33;4.83;;;4.43;;
6412;SDS011;3239;48.714;9.472;2023-06-10T01:23:02;5.50;;;5.00;;
6412;SDS011;3239;48.714;9.472;2023-06-10T01:25:28;5.27;;;4.87;;
6412;SDS011;3239;48.714;9.472;2023-06-10T01:30:59;5.57;;;5.07;;
6412;SDS011;3239;48.714;9.472;2023-06-10T01:33:27;4.73;;;4.43;;
6412;SDS011;3239;48.714;9.472;2023-06-10T01:35:58;6.23;;;5.73;;
6412;SDS011;3239;48.714;9.472;2023-06-10T01:38:26;5.00;;;4.60;;
6412;SDS011;3239;48.714;9.472;2023-06-10T01:40:57;5.03;;;4.60;;
6412;SDS011;3239;48.714;9.472;2023-06-10T01:43:23;5.33;;;4.90;;
6412;SDS011;3239;48.714;9.472;2023-06-10T01:45:49;5.20;;;4.70;;
6412;SDS011;3239;48.714;9.472;2023-06-10T01:48:15;5.33;;;4.90;;
6412;SDS011;3239;48.714;9.472;2023-06-10T01:50:41;5.40;;;5.00;;
6412;SDS011;3239;48.714;9.472;2023-06-10T01:53:08;5.13;;;4.73;;
6412;SDS011;3239;48.714;9.472;2023-06-10T01:55:34;5.53;;;5.03;;
6412;SDS011;3239;48.714;9.472;2023-06-10T01:58:00;5.40;;;4.90;;
6412;SDS011;3239;48.714;9.472;2023-06-10T02:00:26;5.50;;;5.00;;
6412;SDS011;3239;48.714;9.472;2023-06-10T02:02:51;6.33;;;4.60;;
6412;SDS011;3239;48.714;9.472;2023-06-10T02:05:17;5.67;;;5.23;;
6412;SDS011;3239;48.714;9.472;2023-06-10T02:07:43;5.30;;;4.80;;
6412;SDS011;3239;48.714;9.472;2023-06-10T02:10:09;5.63;;;5.13;;
6412;SDS011;3239;48.714;9.472;2023-06-10T02:12:35;4.83;;;4.43;;
6412;SDS011;3239;48.714;9.472;2023-06-10T02:15:00;6.30;;;5.70;;
6412;SDS011;3239;48.714;9.472;2023-06-10T02:17:26;5.80;;;5.30;;
6412;SDS011;3239;48.714;9.472;2023-06-10T02:19:53;5.37;;;4.77;;
6412;SDS011;3239;48.714;9.472;2023-06-10T02:22:22;5.90;;;5.40;;
6412;SDS011;3239;48.714;9.472;2023-06-10T02:24:48;6.17;;;5.50;;
6412;SDS011;3239;48.714;9.472;2023-06-10T02:27:17;5.50;;;5.00;;
6412;SDS011;3239;48.714;9.472;2023-06-10T02:29:43;5.30;;;4.90;;
6412;SDS011;3239;48.714;9.472;2023-06-10T02:32:09;5.27;;;4.87;;
6412;SDS011;3239;48.714;9.472;2023-06-10T02:34:35;6.27;;;4.70;;
6412;SDS011;3239;48.714;9.472;2023-06-10T02:37:01;5.43;;;4.40;;
6412;SDS011;3239;48.714;9.472;2023-06-10T02:39:27;5.10;;;4.70;;
6412;SDS011;3239;48.714;9.472;2023-06-10T02:41:53;4.83;;;4.33;;
6412;SDS011;3239;48.714;9.472;2023-06-10T02:44:19;4.37;;;3.97;;
6412;SDS011;3239;48.714;9.472;2023-06-10T02:46:45;5.23;;;4.83;;
6412;SDS011;3239;48.714;9.472;2023-06-10T02:49:11;5.53;;;5.00;;
6412;SDS011;3239;48.714;9.472;2023-06-10T02:51:37;7.13;;;5.43;;
6412;SDS011;3239;48.714;9.472;2023-06-10T02:54:04;5.33;;;4.70;;
6412;SDS011;3239;48.714;9.472;2023-06-10T02:56:30;5.50;;;5.00;;
6412;SDS011;3239;48.714;9.472;2023-06-10T02:58:56;5.13;;;4.70;;
6412;SDS011;3239;48.714;9.472;2023-06-10T03:01:22;5.00;;;4.60;;
6412;SDS011;3239;48.714;9.472;2023-06-10T03:03:48;5.50;;;5.00;;
6412;SDS011;3239;48.714;9.472;2023-06-10T03:06:15;5.30;;;4.77;;
6412;SDS011;3239;48.714;9.472;2023-06-10T03:08:41;6.23;;;4.23;;
6412;SDS011;3239;48.714;9.472;2023-06-10T03:11:07;5.47;;;4.37;;
6412;SDS011;3239;48.714;9.472;2023-06-10T03:13:33;5.30;;;4.13;;
6412;SDS011;3239;48.714;9.472;2023-06-10T03:15:59;5.23;;;4.80;;
6412;SDS011;3239;48.714;9.472;2023-06-10T03:18:26;4.20;;;3.90;;
6412;SDS011;3239;48.714;9.472;2023-06-10T03:20:53;6.33;;;4.93;;
6412;SDS011;3239;48.714;9.472;2023-06-10T03:23:22;5.27;;;4.77;;
6412;SDS011;3239;48.714;9.472;2023-06-10T03:25:48;6.07;;;5.13;;
6412;SDS011;3239;48.714;9.472;2023-06-10T03:28:14;5.70;;;4.90;;
6412;SDS011;3239;48.714;9.472;2023-06-10T03:30:40;7.03;;;4.13;;
6412;SDS011;3239;48.714;9.472;2023-06-10T03:33:06;5.30;;;4.80;;
6412;SDS011;3239;48.714;9.472;2023-06-10T03:35:31;5.40;;;4.20;;
6412;SDS011;3239;48.714;9.472;2023-06-10T03:37:57;4.40;;;4.10;;
6412;SDS011;3239;48.714;9.472;2023-06-10T03:40:24;4.83;;;4.40;;
6412;SDS011;3239;48.714;9.472;2023-06-10T03:42:49;6.53;;;5.20;;
6412;SDS011;3239;48.714;9.472;2023-06-10T03:45:15;8.30;;;4.70;;
6412;SDS011;3239;48.714;9.472;2023-06-10T03:47:41;6.93;;;4.90;;
6412;SDS011;3239;48.714;9.472;2023-06-10T03:50:08;5.57;;;5.07;;
6412;SDS011;3239;48.714;9.472;2023-06-10T03:52:35;4.73;;;4.33;;
6412;SDS011;3239;48.714;9.472;2023-06-10T03:55:02;6.93;;;4.73;;
6412;SDS011;3239;48.714;9.472;2023-06-10T03:57:28;6.03;;;5.07;;
6412;SDS011;3239;48.714;9.472;2023-06-10T03:59:54;5.37;;;4.87;;
6412;SDS011;3239;48.714;9.472;2023-06-10T04:02:21;5.93;;;5.30;;
6412;SDS011;3239;48.714;9.472;2023-06-10T04:04:47;4.80;;;4.40;;
6412;SDS011;3239;48.714;9.472;2023-06-10T04:07:13;9.13;;;4.83;;
6412;SDS011;3239;48.714;9.472;2023-06-10T04:09:39;5.60;;;4.60;;
6412;SDS011;3239;48.714;9.472;2023-06-10T04:12:05;5.37;;;4.93;;
6412;SDS011;3239;48.714;9.472;2023-06-10T04:14:33;6.23;;;5.40;;
6412;SDS011;3239;48.714;9.472;2023-06-10T04:17:02;9.00;;;4.43;;
6412;SDS011;3239;48.714;9.472;2023-06-10T04:19:33;6.63;;;5.13;;
6412;SDS011;3239;48.714;9.472;2023-06-10T04:22:00;5.70;;;5.00;;
6412;SDS011;3239;48.714;9.472;2023-06-10T04:24:27;5.30;;;4.90;;
6412;SDS011;3239;48.714;9.472;2023-06-10T04:26:53;5.27;;;4.77;;
6412;SDS011;3239;48.714;9.472;2023-06-10T04:29:18;5.10;;;4.70;;
6412;SDS011;3239;48.714;9.472;2023-06-10T04:31:44;5.37;;;4.73;;
6412;SDS011;3239;48.714;9.472;2023-06-10T04:34:11;5.73;;;5.23;;
6412;SDS011;3239;48.714;9.472;2023-06-10T04:36:37;9.07;;;5.13;;
6412;SDS011;3239;48.714;9.472;2023-06-10T04:39:03;10.17;;;5.10;;
6412;SDS011;3239;48.714;9.472;2023-06-10T04:41:30;5.60;;;5.10;;
6412;SDS011;3239;48.714;9.472;2023-06-10T04:43:56;5.90;;;5.30;;
6412;SDS011;3239;48.714;9.472;2023-06-10T04:46:22;5.20;;;4.80;;
6412;SDS011;3239;48.714;9.472;2023-06-10T04:48:49;5.77;;;5.27;;
6412;SDS011;3239;48.714;9.472;2023-06-10T04:51:15;7.50;;;5.83;;
6412;SDS011;3239;48.714;9.472;2023-06-10T04:53:41;6.20;;;5.70;;
6412;SDS011;3239;48.714;9.472;2023-06-10T04:56:07;6.30;;;5.80;;
6412;SDS011;3239;48.714;9.472;2023-06-10T04:58:33;5.90;;;5.23;;
6412;SDS011;3239;48.714;9.472;2023-06-10T05:00:59;5.90;;;5.30;;
6412;SDS011;3239;48.714;9.472;2023-06-10T05:03:26;5.10;;;4.60;;
6412;SDS011;3239;48.714;9.472;2023-06-10T05:05:51;6.00;;;5.40;;
6412;SDS011;3239;48.714;9.472;2023-06-10T05:08:17;5.23;;;4.77;;
6412;SDS011;3239;48.714;9.472;2023-06-10T05:10:43;6.50;;;5.73;;
6412;SDS011;3239;48.714;9.472;2023-06-10T05:13:09;5.10;;;4.70;;
6412;SDS011;3239;48.714;9.472;2023-06-10T05:15:35;5.10;;;4.60;;
6412;SDS011;3239;48.714;9.472;2023-06-10T05:18:01;5.80;;;5.30;;
6412;SDS011;3239;48.714;9.472;2023-06-10T05:20:27;5.10;;;4.33;;
6412;SDS011;3239;48.714;9.472;2023-06-10T05:22:53;5.00;;;4.50;;
6412;SDS011;3239;48.714;9.472;2023-06-10T05:25:19;4.77;;;4.37;;
6412;SDS011;3239;48.714;9.472;2023-06-10T05:27:45;5.10;;;4.70;;
6412;SDS011;3239;48.714;9.472;2023-06-10T05:30:11;4.60;;;4.30;;
6412;SDS011;3239;48.714;9.472;2023-06-10T05:32:37;4.67;;;4.37;;
6412;SDS011;3239;48.714;9.472;2023-06-10T05:35:02;5.37;;;4.83;;
6412;SDS011;3239;48.714;9.472;2023-06-10T05:37:29;7.27;;;4.67;;
6412;SDS011;3239;48.714;9.472;2023-06-10T05:39:55;6.10;;;5.30;;
6412;SDS011;3239;48.714;9.472;2023-06-10T05:42:21;4.30;;;3.97;;
6412;SDS011;3239;48.714;9.472;2023-06-10T05:44:46;5.00;;;4.60;;
6412;SDS011;3239;48.714;9.472;2023-06-10T05:47:12;5.30;;;4.80;;
6412;SDS011;3239;48.714;9.472;2023-06-10T05:49:38;4.47;;;4.10;;
6412;SDS011;3239;48.714;9.472;2023-06-10T05:52:04;5.20;;;4.70;;
6412;SDS011;3239;48.714;9.472;2023-06-10T05:54:30;4.67;;;4.27;;
6412;SDS011;3239;48.714;9.472;2023-06-10T05:56:56;4.60;;;4.10;;
6412;SDS011;3239;48.714;9.472;2023-06-10T05:59:22;4.90;;;4.50;;
6412;SDS011;3239;48.714;9.472;2023-06-10T06:01:48;7.07;;;4.67;;
6412;SDS011;3239;48.714;9.472;2023-06-10T06:04:15;5.17;;;4.67;;
6412;SDS011;3239;48.714;9.472;2023-06-10T06:06:41;5.57;;;5.00;;
6412;SDS011;3239;48.714;9.472;2023-06-10T06:09:07;5.40;;;4.90;;
6412;SDS011;3239;48.714;9.472;2023-06-10T06:11:33;4.90;;;4.40;;
6412;SDS011;3239;48.714;9.472;2023-06-10T06:14:00;6.23;;;5.20;;
6412;SDS011;3239;48.714;9.472;2023-06-10T06:16:25;4.80;;;4.40;;
6412;SDS011;3239;48.714;9.472;2023-06-10T06:18:51;5.40;;;5.00;;
6412;SDS011;3239;48.714;9.472;2023-06-10T06:21:17;5.53;;;4.90;;
6412;SDS011;3239;48.714;9.472;2023-06-10T06:23:42;5.10;;;4.70;;
6412;SDS011;3239;48.714;9.472;2023-06-10T06:26:08;5.37;;;4.87;;
6412;SDS011;3239;48.714;9.472;2023-06-10T06:28:34;4.90;;;4.50;;
6412;SDS011;3239;48.714;9.472;2023-06-10T06:31:00;4.70;;;4.30;;
6412;SDS011;3239;48.714;9.472;2023-06-10T06:33:26;4.80;;;4.40;;
6412;SDS011;3239;48.714;9.472;2023-06-10T06:35:51;4.20;;;3.90;;
6412;SDS011;3239;48.714;9.472;2023-06-10T06:38:17;8.20;;;4.33;;
6412;SDS011;3239;48.714;9.472;2023-06-10T06:40:43;5.60;;;4.03;;
6412;SDS011;3239;48.714;9.472;2023-06-10T06:43:09;5.13;;;4.70;;
6412;SDS011;3239;48.714;9.472;2023-06-10T06:45:34;4.60;;;4.20;;
6412;SDS011;3239;48.714;9.472;2023-06-10T06:48:00;4.37;;;4.00;;
6412;SDS011;3239;48.714;9.472;2023-06-10T06:50:26;7.43;;;3.70;;
6412;SDS011;3239;48.714;9.472;2023-06-10T06:52:51;4.20;;;3.80;;
6412;SDS011;3239;48.714;9.472;2023-06-10T06:55:17;4.07;;;3.77;;
6412;SDS011;3239;48.714;9.472;2023-06-10T06:57:46;3.57;;;3.27;;
6412;SDS011;3239;48.714;9.472;2023-06-10T07:00:12;4.10;;;3.70;;
6412;SDS011;3239;48.714;9.472;2023-06-10T07:02:38;4.60;;;4.27;;
6412;SDS011;3239;48.714;9.472;2023-06-10T07:05:05;4.17;;;3.77;;
6412;SDS011;3239;48.714;9.472;2023-06-10T07:08:36;4.00;;;3.60;;
6412;SDS011;3239;48.714;9.472;2023-06-10T07:11:01;4.67;;;4.27;;
6412;SDS011;3239;48.714;9.472;2023-06-10T07:13:27;4.37;;;4.07;;
6412;SDS011;3239;48.714;9.472;2023-06-10T07:15:53;9.00;;;3.70;;
6412;SDS011;3239;48.714;9.472;2023-06-10T07:18:18;3.80;;;3.50;;
6412;SDS011;3239;48.714;9.472;2023-06-10T07:20:44;4.03;;;3.63;;
6412;SDS011;3239;48.714;9.472;2023-06-10T07:23:10;4.30;;;4.00;;
6412;SDS011;3239;48.714;9.472;2023-06-10T07:25:36;4.20;;;3.90;;
6412;SDS011;3239;48.714;9.472;2023-06-10T07:28:02;4.40;;;4.00;;
6412;SDS011;3239;48.714;9.472;2023-06-10T07:30:28;4.23;;;3.83;;
6412;SDS011;3239;48.714;9.472;2023-06-10T07:32:54;3.87;;;3.50;;
6412;SDS011;3239;48.714;9.472;2023-06-10T07:35:20;4.27;;;3.90;;
6412;SDS011;3239;48.714;9.472;2023-06-10T07:37:46;4.53;;;4.13;;
6412;SDS011;3239;48.714;9.472;2023-06-10T07:40:12;4.40;;;4.00;;
6412;SDS011;3239;48.714;9.472;2023-06-10T07:42:38;4.50;;;4.10;;
6412;SDS011;3239;48.714;9.472;2023-06-10T07:45:04;5.20;;;3.77;;
6412;SDS011;3239;48.714;9.472;2023-06-10T07:47:32;4.03;;;3.73;;
6412;SDS011;3239;48.714;9.472;2023-06-10T07:49:59;4.27;;;3.70;;
6412;SDS011;3239;48.714;9.472;2023-06-10T07:52:25;4.10;;;3.80;;
6412;SDS011;3239;48.714;9.472;2023-06-10T07:54:51;4.40;;;3.90;;
6412;SDS011;3239;48.714;9.472;2023-06-10T07:57:17;4.00;;;3.70;;
6412;SDS011;3239;48.714;9.472;2023-06-10T07:59:44;4.23;;;3.50;;
6412;SDS011;3239;48.714;9.472;2023-06-10T08:02:09;5.10;;;4.03;;
6412;SDS011;3239;48.714;9.472;2023-06-10T08:04:35;4.07;;;3.77;;
6412;SDS011;3239;48.714;9.472;2023-06-10T08:07:22;5.57;;;4.23;;
6412;SDS011;3239;48.714;9.472;2023-06-10T08:09:47;3.90;;;3.60;;
6412;SDS011;3239;48.714;9.472;2023-06-10T08:12:13;4.20;;;3.80;;
6412;SDS011;3239;48.714;9.472;2023-06-10T08:14:39;4.10;;;3.67;;
6412;SDS011;3239;48.714;9.472;2023-06-10T08:17:05;3.43;;;3.13;;
6412;SDS011;3239;48.714;9.472;2023-06-10T08:19:31;4.00;;;3.70;;
6412;SDS011;3239;48.714;9.472;2023-06-10T08:21:57;5.07;;;3.80;;
6412;SDS011;3239;48.714;9.472;2023-06-10T08:24:23;5.37;;;3.93;;
6412;SDS011;3239;48.714;9.472;2023-06-10T08:26:48;4.60;;;3.90;;
6412;SDS011;3239;48.714;9.472;2023-06-10T08:29:14;4.57;;;3.10;;
6412;SDS011;3239;48.714;9.472;2023-06-10T08:31:43;4.27;;;3.97;;
6412;SDS011;3239;48.714;9.472;2023-06-10T08:34:09;4.70;;;3.37;;
6412;SDS011;3239;48.714;9.472;2023-06-10T08:36:35;3.80;;;3.50;;
6412;SDS011;3239;48.714;9.472;2023-06-10T08:39:01;3.40;;;2.80;;
6412;SDS011;3239;48.714;9.472;2023-06-10T08:41:28;4.83;;;3.53;;
6412;SDS011;3239;48.714;9.472;2023-06-10T08:46:37;4.50;;;4.20;;
6412;SDS011;3239;48.714;9.472;2023-06-10T08:49:09;4.20;;;3.60;;
6412;SDS011;3239;48.714;9.472;2023-06-10T08:51:40;3.27;;;2.97;;
6412;SDS011;3239;48.714;9.472;2023-06-10T08:54:22;9.40;;;3.57;;
6412;SDS011;3239;48.714;9.472;2023-06-10T08:56:54;3.27;;;2.97;;
6412;SDS011;3239;48.714;9.472;2023-06-10T08:59:22;5.40;;;3.27;;
6412;SDS011;3239;48.714;9.472;2023-06-10T09:01:50;6.20;;;3.10;;
6412;SDS011;3239;48.714;9.472;2023-06-10T09:04:17;3.43;;;3.10;;
6412;SDS011;3239;48.714;9.472;2023-06-10T09:06:44;3.60;;;3.30;;
6412;SDS011;3239;48.714;9.472;2023-06-10T09:09:10;3.33;;;3.03;;
6412;SDS011;3239;48.714;9.472;2023-06-10T09:11:39;4.00;;;3.60;;
6412;SDS011;3239;48.714;9.472;2023-06-10T09:14:07;3.00;;;2.80;;
6412;SDS011;3239;48.714;9.472;2023-06-10T09:16:34;3.97;;;3.40;;
6412;SDS011;3239;48.714;9.472;2023-06-10T09:19:00;3.30;;;3.03;;
6412;SDS011;3239;48.714;9.472;2023-06-10T09:21:32;4.00;;;3.70;;
6412;SDS011;3239;48.714;9.472;2023-06-10T09:24:01;3.83;;;3.30;;
6412;SDS011;3239;48.714;9.472;2023-06-10T09:26:28;3.70;;;3.40;;
6412;SDS011;3239;48.714;9.472;2023-06-10T09:28:58;3.47;;;3.17;;
6412;SDS011;3239;48.714;9.472;2023-06-10T09:31:34;4.03;;;3.70;;
6412;SDS011;3239;48.714;9.472;2023-06-10T09:34:08;4.10;;;3.13;;
6412;SDS011;3239;48.714;9.472;2023-06-10T09:36:39;3.80;;;3.17;;
6412;SDS011;3239;48.714;9.472;2023-06-10T09:39:05;3.30;;;3.00;;
6412;SDS011;3239;48.714;9.472;2023-06-10T09:41:43;4.57;;;3.20;;
6412;SDS011;3239;48.714;9.472;2023-06-10T09:44:17;3.30;;;2.90;;
6412;SDS011;3239;48.714;9.472;2023-06-10T09:46:46;3.07;;;2.60;;
6412;SDS011;3239;48.714;9.472;2023-06-10T09:49:18;3.70;;;2.80;;
6412;SDS011;3239;48.714;9.472;2023-06-10T09:51:50;3.20;;;2.90;;
6412;SDS011;3239;48.714;9.472;2023-06-10T09:54:18;3.33;;;3.03;;
6412;SDS011;3239;48.714;9.472;2023-06-10T09:56:48;4.63;;;2.77;;
6412;SDS011;3239;48.714;9.472;2023-06-10T09:59:16;2.70;;;2.50;;
6412;SDS011;3239;48.714;9.472;2023-06-10T10:01:56;3.40;;;3.10;;
6412;SDS011;3239;48.714;9.472;2023-06-10T10:04:26;6.10;;;3.03;;
6412;SDS011;3239;48.714;9.472;2023-06-10T10:06:53;4.13;;;2.80;;
6412;SDS011;3239;48.714;9.472;2023-06-10T10:09:19;3.00;;;2.70;;
6412;SDS011;3239;48.714;9.472;2023-06-10T10:11:45;3.10;;;2.90;;
6412;SDS011;3239;48.714;9.472;2023-06-10T10:14:12;4.83;;;2.70;;
6412;SDS011;3239;48.714;9.472;2023-06-10T10:16:41;5.23;;;2.70;;
6412;SDS011;3239;48.714;9.472;2023-06-10T10:19:10;5.13;;;2.63;;
6412;SDS011;3239;48.714;9.472;2023-06-10T10:21:44;7.17;;;3.23;;
6412;SDS011;3239;48.714;9.472;2023-06-10T10:24:20;8.53;;;3.60;;
6412;SDS011;3239;48.714;9.472;2023-06-10T10:26:48;4.27;;;2.50;;
6412;SDS011;3239;48.714;9.472;2023-06-10T10:31:49;3.07;;;2.87;;
6412;SDS011;3239;48.714;9.472;2023-06-10T10:34:24;4.97;;;3.00;;
6412;SDS011;3239;48.714;9.472;2023-06-10T10:37:00;5.20;;;3.60;;
6412;SDS011;3239;48.714;9.472;2023-06-10T10:39:26;3.03;;;2.73;;
6412;SDS011;3239;48.714;9.472;2023-06-10T10:41:53;2.83;;;2.50;;
6412;SDS011;3239;48.714;9.472;2023-06-10T10:44:20;2.43;;;2.10;;
6412;SDS011;3239;48.714;9.472;2023-06-10T10:46:50;3.27;;;3.03;;
6412;SDS011;3239;48.714;9.472;2023-06-10T10:49:17;2.50;;;2.30;;
6412;SDS011;3239;48.714;9.472;2023-06-10T10:51:54;3.00;;;2.70;;
6412;SDS011;3239;48.714;9.472;2023-06-10T10:54:27;6.00;;;2.80;;
6412;SDS011;3239;48.714;9.472;2023-06-10T10:57:17;3.20;;;2.90;;
6412;SDS011;3239;48.714;9.472;2023-06-10T11:02:32;4.23;;;2.30;;
6412;SDS011;3239;48.714;9.472;2023-06-10T11:05:05;3.00;;;2.70;;
6412;SDS011;3239;48.714;9.472;2023-06-10T11:07:33;2.83;;;2.63;;
6412;SDS011;3239;48.714;9.472;2023-06-10T11:10:08;2.87;;;2.67;;
6412;SDS011;3239;48.714;9.472;2023-06-10T11:15:18;4.67;;;2.77;;
6412;SDS011;3239;48.714;9.472;2023-06-10T11:20:57;3.90;;;2.93;;
6412;SDS011;3239;48.714;9.472;2023-06-10T11:26:16;4.20;;;3.10;;
6412;SDS011;3239;48.714;9.472;2023-06-10T11:31:20;3.97;;;3.00;;
6412;SDS011;3239;48.714;9.472;2023-06-10T11:33:48;2.97;;;2.77;;
6412;SDS011;3239;48.714;9.472;2023-06-10T11:36:18;3.37;;;3.07;;
6412;SDS011;3239;48.714;9.472;2023-06-10T11:38:45;3.27;;;2.97;;
6412;SDS011;3239;48.714;9.472;2023-06-10T11:41:11;3.40;;;3.10;;
6412;SDS011;3239;48.714;9.472;2023-06-10T11:43:40;2.93;;;2.60;;
6412;SDS011;3239;48.714;9.472;2023-06-10T11:46:13;2.87;;;2.63;;
6412;SDS011;3239;48.714;9.472;2023-06-10T11:48:49;4.07;;;2.80;;
6412;SDS011;3239;48.714;9.472;2023-06-10T11:51:18;3.57;;;3.10;;
6412;SDS011;3239;48.714;9.472;2023-06-10T11:53:46;8.03;;;3.20;;
6412;SDS011;3239;48.714;9.472;2023-06-10T11:56:13;2.50;;;2.30;;
6412;SDS011;3239;48.714;9.472;2023-06-10T11:58:44;3.20;;;2.87;;
6412;SDS011;3239;48.714;9.472;2023-06-10T12:01:10;4.63;;;2.80;;
6412;SDS011;3239;48.714;9.472;2023-06-10T12:06:09;5.10;;;2.90;;
6412;SDS011;3239;48.714;9.472;2023-06-10T12:08:37;3.47;;;2.57;;
6412;SDS011;3239;48.714;9.472;2023-06-10T12:11:07;2.57;;;2.37;;
6412;SDS011;3239;48.714;9.472;2023-06-10T12:13:33;2.40;;;2.20;;
6412;SDS011;3239;48.714;9.472;2023-06-10T12:16:08;4.20;;;2.80;;
6412;SDS011;3239;48.714;9.472;2023-06-10T12:18:35;2.50;;;2.30;;
6412;SDS011;3239;48.714;9.472;2023-06-10T12:21:01;2.13;;;1.93;;
6412;SDS011;3239;48.714;9.472;2023-06-10T12:23:28;2.20;;;2.00;;
6412;SDS011;3239;48.714;9.472;2023-06-10T12:25:54;2.63;;;2.43;;
6412;SDS011;3239;48.714;9.472;2023-06-10T12:28:24;3.37;;;2.73;;
6412;SDS011;3239;48.714;9.472;2023-06-10T12:30:51;2.63;;;2.43;;
6412;SDS011;3239;48.714;9.472;2023-06-10T12:33:32;2.93;;;2.67;;
6412;SDS011;3239;48.714;9.472;2023-06-10T12:35:58;2.80;;;2.60;;
6412;SDS011;3239;48.714;9.472;2023-06-10T12:38:25;3.70;;;2.37;;
6412;SDS011;3239;48.714;9.472;2023-06-10T12:41:00;2.77;;;2.53;;
6412;SDS011;3239;48.714;9.472;2023-06-10T12:43:30;2.97;;;2.40;;
6412;SDS011;3239;48.714;9.472;2023-06-10T12:46:07;2.67;;;2.47;;
6412;SDS011;3239;48.714;9.472;2023-06-10T12:48:34;2.50;;;2.30;;
6412;SDS011;3239;48.714;9.472;2023-06-10T12:51:00;3.53;;;2.13;;
6412;SDS011;3239;48.714;9.472;2023-06-10T12:53:26;3.00;;;2.80;;
6412;SDS011;3239;48.714;9.472;2023-06-10T12:55:52;4.00;;;3.07;;
6412;SDS011;3239;48.714;9.472;2023-06-10T12:58:21;2.30;;;2.10;;
6412;SDS011;3239;48.714;9.472;2023-06-10T13:00:48;3.03;;;2.03;;
6412;SDS011;3239;48.714;9.472;2023-06-10T13:03:17;2.57;;;2.37;;
6412;SDS011;3239;48.714;9.472;2023-06-10T13:05:43;2.90;;;2.70;;
6412;SDS011;3239;48.714;9.472;2023-06-10T13:08:09;3.23;;;2.70;;
6412;SDS011;3239;48.714;9.472;2023-06-10T13:10:37;3.00;;;2.60;;
6412;SDS011;3239;48.714;9.472;2023-06-10T13:13:03;11.00;;;3.47;;
6412;SDS011;3239;48.714;9.472;2023-06-10T13:15:31;15.87;;;4.70;;
6412;SDS011;3239;48.714;9.472;2023-06-10T13:18:01;4.03;;;2.97;;
6412;SDS011;3239;48.714;9.472;2023-06-10T13:20:30;4.67;;;2.93;;
6412;SDS011;3239;48.714;9.472;2023-06-10T13:22:56;2.90;;;2.33;;
6412;SDS011;3239;48.714;9.472;2023-06-10T13:25:22;6.47;;;2.83;;
6412;SDS011;3239;48.714;9.472;2023-06-10T13:27:48;6.53;;;3.63;;
6412;SDS011;3239;48.714;9.472;2023-06-10T13:30:14;3.53;;;2.77;;
6412;SDS011;3239;48.714;9.472;2023-06-10T13:32:39;2.97;;;2.67;;
6412;SDS011;3239;48.714;9.472;2023-06-10T13:35:05;2.60;;;2.40;;
6412;SDS011;3239;48.714;9.472;2023-06-10T13:37:32;2.77;;;2.57;;
6412;SDS011;3239;48.714;9.472;2023-06-10T13:39:59;2.87;;;2.57;;
6412;SDS011;3239;48.714;9.472;2023-06-10T13:42:25;7.90;;;2.33;;
6412;SDS011;3239;48.714;9.472;2023-06-10T13:44:51;3.77;;;2.70;;
6412;SDS011;3239;48.714;9.472;2023-06-10T13:47:17;3.23;;;2.93;;
6412;SDS011;3239;48.714;9.472;2023-06-10T13:49:42;2.60;;;2.40;;
6412;SDS011;3239;48.714;9.472;2023-06-10T13:52:08;3.03;;;2.83;;
6412;SDS011;3239;48.714;9.472;2023-06-10T13:54:34;4.70;;;2.47;;
6412;SDS011;3239;48.714;9.472;2023-06-10T13:57:03;2.70;;;2.50;;
6412;SDS011;3239;48.714;9.472;2023-06-10T13:59:29;2.97;;;2.77;;
6412;SDS011;3239;48.714;9.472;2023-06-10T14:01:55;4.37;;;2.47;;
6412;SDS011;3239;48.714;9.472;2023-06-10T14:04:21;2.90;;;2.70;;
6412;SDS011;3239;48.714;9.472;2023-06-10T14:06:47;3.53;;;3.23;;
6412;SDS011;3239;48.714;9.472;2023-06-10T14:09:13;3.50;;;2.70;;
6412;SDS011;3239;48.714;9.472;2023-06-10T14:11:39;3.23;;;2.40;;
6412;SDS011;3239;48.714;9.472;2023-06-10T14:14:05;5.13;;;2.13;;
6412;SDS011;3239;48.714;9.472;2023-06-10T14:16:31;5.60;;;2.57;;
6412;SDS011;3239;48.714;9.472;2023-06-10T14:18:56;3.30;;;2.30;;
6412;SDS011;3239;48.714;9.472;2023-06-10T14:21:22;2.67;;;2.47;;
6412;SDS011;3239;48.714;9.472;2023-06-10T14:23:48;3.10;;;2.40;;
6412;SDS011;3239;48.714;9.472;2023-06-10T14:26:15;5.80;;;2.50;;
6412;SDS011;3239;48.714;9.472;2023-06-10T14:28:40;3.23;;;2.40;;
6412;SDS011;3239;48.714;9.472;2023-06-10T14:31:06;2.53;;;2.30;;
6412;SDS011;3239;48.714;9.472;2023-06-10T14:33:32;4.50;;;2.73;;
6412;SDS011;3239;48.714;9.472;2023-06-10T14:35:58;3.10;;;2.67;;
6412;SDS011;3239;48.714;9.472;2023-06-10T14:38:24;2.70;;;2.50;;
6412;SDS011;3239;48.714;9.472;2023-06-10T14:40:50;3.70;;;3.10;;
6412;SDS011;3239;48.714;9.472;2023-06-10T14:43:17;4.33;;;2.43;;
6412;SDS011;3239;48.714;9.472;2023-06-10T14:45:43;2.53;;;2.33;;
6412;SDS011;3239;48.714;9.472;2023-06-10T14:48:10;2.67;;;2.43;;
6412;SDS011;3239;48.714;9.472;2023-06-10T14:50:37;3.40;;;2.53;;
6412;SDS011;3239;48.714;9.472;2023-06-10T14:53:05;3.30;;;2.50;;
6412;SDS011;3239;48.714;9.472;2023-06-10T14:55:31;4.50;;;2.30;;
6412;SDS011;3239;48.714;9.472;2023-06-10T14:57:57;2.80;;;2.60;;
6412;SDS011;3239;48.714;9.472;2023-06-10T15:00:23;3.40;;;2.20;;
6412;SDS011;3239;48.714;9.472;2023-06-10T15:02:50;2.50;;;2.30;;
6412;SDS011;3239;48.714;9.472;2023-06-10T15:05:17;2.67;;;2.23;;
6412;SDS011;3239;48.714;9.472;2023-06-10T15:07:44;2.40;;;2.20;;
6412;SDS011;3239;48.714;9.472;2023-06-10T15:10:11;2.47;;;2.10;;
6412;SDS011;3239;48.714;9.472;2023-06-10T15:12:37;2.37;;;2.17;;
6412;SDS011;3239;48.714;9.472;2023-06-10T15:15:03;2.50;;;2.30;;
6412;SDS011;3239;48.714;9.472;2023-06-10T15:17:29;2.30;;;1.90;;
6412;SDS011;3239;48.714;9.472;2023-06-10T15:19:55;3.70;;;2.20;;
6412;SDS011;3239;48.714;9.472;2023-06-10T15:22:21;3.13;;;1.97;;
6412;SDS011;3239;48.714;9.472;2023-06-10T15:24:47;2.77;;;2.23;;
6412;SDS011;3239;48.714;9.472;2023-06-10T15:27:12;3.90;;;2.33;;
6412;SDS011;3239;48.714;9.472;2023-06-10T15:29:39;2.37;;;2.10;;
6412;SDS011;3239;48.714;9.472;2023-06-10T15:32:05;2.60;;;2.30;;
6412;SDS011;3239;48.714;9.472;2023-06-10T15:34:31;2.30;;;2.10;;
6412;SDS011;3239;48.714;9.472;2023-06-10T15:36:57;6.10;;;2.10;;
6412;SDS011;3239;48.714;9.472;2023-06-10T15:39:22;2.30;;;2.07;;
6412;SDS011;3239;48.714;9.472;2023-06-10T15:41:50;2.37;;;2.17;;
6412;SDS011;3239;48.714;9.472;2023-06-10T15:44:15;2.30;;;2.10;;
6412;SDS011;3239;48.714;9.472;2023-06-10T15:46:41;3.40;;;2.30;;